JAC weather

Jackson Hole Airport
Jackson, Wyoming, United States

Public forecast

Using degrees Fahrenheit for public forecast. Weather courtesy of forecast.io.

Current aviation weather report (METAR) for Jackson Hole Airport

Retrieved 2019/10/13 19:56 UTC (15 minutes ago):

KJAC 131956Z VRB06KT 10SM CLR 11/M07 A3002 RMK AO2 SLP180 T01111072

Aviation forecast (TAF) for Jackson Hole Airport

Retrieved 2019/10/13 18:42 UTC (1 hour ago):

TAF KJAC 131740Z 1318/1418 VRB04KT P6SM SCT200 FM131900 20005KT P6SM FEW150 FM140300 36006KT P6SM SCT130 AMD LTD TO CLD VIS AND WIND